Terminal Aerodrome Forecast
Issued by NWS

Current Version | Previous Version | Text Only | Print | Product List | Glossary On
Versions: 1 2 3 4 5 6 7 8 9 10 11 12 13 14
445
FTUS43 KGRB 272338
TAFMTW
TAF
KMTW 272338Z 2800/2824 25011G18KT P6SM VCSH BKN025 OVC040
      TEMPO 2800/2804 OVC040
     FM280400 24009KT P6SM OVC040
     FM280800 24007KT P6SM SCT040
     FM281600 18009KT P6SM SCT100
     FM282100 24006KT P6SM SCT035 BKN100=

USA.gov is the U.S. government's official web portal to all federal, state and local government web resources and services.